Zielona Gora, Poland

5:41 AM CET on March 03, 2015 (GMT +0100)
Babimost | Change Station
CLOSE
Current Station
Airport
Location: Zielona Gora,
Elevation: 194 ft
Nearby Weather Stations

Elev 194 ft 52.14 °N, 15.80 °E | Updated 11 minutes ago

Overcast
Overcast
36 °F
Feels Like 27 °F
N
13
Wind Variable Wind from WSW

Today
High -- | Low -- °F
--% Chance of Precip.
Yesterday
High -- | Low -- °F
Precip. -- in
6:39 AM 5:39 PM
Waxing Gibbous, 94% visible
Pressure 29.83 in
Visibility 6.2 miles
Clouds Mostly Cloudy 3000 ft
Overcast 4000 ft
Windchill 27 °F
Dew Point 32 °F
Humidity 87%
Rainfall 0.00 in
Snow Depth Not available.
UV 0 out of 12
Pollen Not available.
Air Quality Not available.
Flu Activity Not available.
METAR EPZG 030430Z 24011KT 9999 BKN030 OVC040 02/00 Q1010

More Conditions Fewer Conditions

Pressure 29.83 in
Visibility 6.2 miles
Clouds Mostly Cloudy 3000 ft
Overcast 4000 ft
Windchill 27 °F
Dew Point 32 °F
Humidity 87%
Rainfall 0.00 in
Snow Depth Not available.
UV 0 out of 12
Pollen Not available.
Air Quality Not available.
Flu Activity Not available.
METAR EPZG 030430Z 24011KT 9999 BKN030 OVC040 02/00 Q1010

More Conditions Fewer Conditions

10-Day Weather Forecast

Almanac

Astronomy

Mar. 03, 2015 Rise Set
Actual Time
Civil Twilight
Nautical Twilight
Astronomical Twilight
Moon
Length of Visible Light
Length of Day
Tomorrow will be .
, % of the Moon is Illuminated

Today's Extremes

Country Highs Country Lows

Community

WunderPhotos

Upload Photos

1,802,064 photos uploaded!

WunderBlogs® & News

Nearby

Air Quality

  Air Quality AQ Index Pollutant
Not available.

Snow Depth

Station Depth Elevation

Earthquake Activity

City Distance Mag. Time & Date
Minimum magnitude displayed is 2.5.

Coastal Water Temperatures

Place Temperature

Nearby Weather Stations